sensor_id;sensor_type;location;lat;lon;timestamp;temperature;humidity
6054;DHT22;3055;50.886;14.814;2023-04-03T00:00:28;2.20;99.90
6054;DHT22;3055;50.886;14.814;2023-04-03T00:02:55;2.30;99.90
6054;DHT22;3055;50.886;14.814;2023-04-03T00:05:22;2.20;99.90
6054;DHT22;3055;50.886;14.814;2023-04-03T00:07:50;2.20;99.90
6054;DHT22;3055;50.886;14.814;2023-04-03T00:10:18;2.20;99.90
6054;DHT22;3055;50.886;14.814;2023-04-03T00:12:45;2.20;99.90
6054;DHT22;3055;50.886;14.814;2023-04-03T00:15:12;2.20;99.90
6054;DHT22;3055;50.886;14.814;2023-04-03T00:17:40;2.10;99.90
6054;DHT22;3055;50.886;14.814;2023-04-03T00:20:07;2.10;99.90
6054;DHT22;3055;50.886;14.814;2023-04-03T00:22:35;2.10;99.90
6054;DHT22;3055;50.886;14.814;2023-04-03T00:25:02;2.10;99.90
6054;DHT22;3055;50.886;14.814;2023-04-03T00:27:30;2.00;99.90
6054;DHT22;3055;50.886;14.814;2023-04-03T00:29:57;2.10;99.90
6054;DHT22;3055;50.886;14.814;2023-04-03T00:32:24;2.10;99.90
6054;DHT22;3055;50.886;14.814;2023-04-03T00:34:51;2.00;99.90
6054;DHT22;3055;50.886;14.814;2023-04-03T00:37:18;2.00;99.90
6054;DHT22;3055;50.886;14.814;2023-04-03T00:39:45;1.90;99.90
6054;DHT22;3055;50.886;14.814;2023-04-03T00:42:13;1.90;99.90
6054;DHT22;3055;50.886;14.814;2023-04-03T00:47:46;1.80;99.90
6054;DHT22;3055;50.886;14.814;2023-04-03T00:50:13;1.80;99.90
6054;DHT22;3055;50.886;14.814;2023-04-03T00:52:40;1.80;99.90
6054;DHT22;3055;50.886;14.814;2023-04-03T00:55:08;1.70;99.90
6054;DHT22;3055;50.886;14.814;2023-04-03T00:57:36;1.60;99.90
6054;DHT22;3055;50.886;14.814;2023-04-03T01:00:06;1.60;99.90
6054;DHT22;3055;50.886;14.814;2023-04-03T01:02:35;1.50;99.90
6054;DHT22;3055;50.886;14.814;2023-04-03T01:05:04;1.40;99.90
6054;DHT22;3055;50.886;14.814;2023-04-03T01:07:32;1.40;99.90
6054;DHT22;3055;50.886;14.814;2023-04-03T01:10:01;1.40;99.90
6054;DHT22;3055;50.886;14.814;2023-04-03T01:12:31;1.40;99.90
6054;DHT22;3055;50.886;14.814;2023-04-03T01:15:00;1.40;99.90
6054;DHT22;3055;50.886;14.814;2023-04-03T01:17:29;1.40;99.90
6054;DHT22;3055;50.886;14.814;2023-04-03T01:20:13;1.30;99.90
6054;DHT22;3055;50.886;14.814;2023-04-03T01:22:48;1.30;99.90
6054;DHT22;3055;50.886;14.814;2023-04-03T01:25:18;1.20;99.90
6054;DHT22;3055;50.886;14.814;2023-04-03T01:27:45;1.20;99.90
6054;DHT22;3055;50.886;14.814;2023-04-03T01:30:14;1.20;99.90
6054;DHT22;3055;50.886;14.814;2023-04-03T01:32:44;1.20;99.90
6054;DHT22;3055;50.886;14.814;2023-04-03T01:35:12;1.20;99.90
6054;DHT22;3055;50.886;14.814;2023-04-03T01:37:39;1.20;99.90
6054;DHT22;3055;50.886;14.814;2023-04-03T01:40:07;1.10;99.90
6054;DHT22;3055;50.886;14.814;2023-04-03T01:42:34;1.00;99.90
6054;DHT22;3055;50.886;14.814;2023-04-03T01:45:02;1.00;99.90
6054;DHT22;3055;50.886;14.814;2023-04-03T01:47:29;1.00;99.90
6054;DHT22;3055;50.886;14.814;2023-04-03T01:49:57;1.00;99.90
6054;DHT22;3055;50.886;14.814;2023-04-03T01:52:24;0.90;99.90
6054;DHT22;3055;50.886;14.814;2023-04-03T01:54:52;0.90;99.90
6054;DHT22;3055;50.886;14.814;2023-04-03T01:57:19;0.90;99.90
6054;DHT22;3055;50.886;14.814;2023-04-03T01:59:46;0.80;99.90
6054;DHT22;3055;50.886;14.814;2023-04-03T02:02:13;0.80;99.90
6054;DHT22;3055;50.886;14.814;2023-04-03T02:04:40;0.90;99.90
6054;DHT22;3055;50.886;14.814;2023-04-03T02:07:08;0.80;99.90
6054;DHT22;3055;50.886;14.814;2023-04-03T02:09:35;0.80;99.90
6054;DHT22;3055;50.886;14.814;2023-04-03T02:12:03;0.80;1.00
6054;DHT22;3055;50.886;14.814;2023-04-03T02:14:30;0.80;1.00
6054;DHT22;3055;50.886;14.814;2023-04-03T02:16:57;0.70;1.00
6054;DHT22;3055;50.886;14.814;2023-04-03T02:19:24;0.60;1.00
6054;DHT22;3055;50.886;14.814;2023-04-03T02:21:51;0.70;1.00
6054;DHT22;3055;50.886;14.814;2023-04-03T02:24:19;0.70;1.00
6054;DHT22;3055;50.886;14.814;2023-04-03T02:26:46;0.70;1.00
6054;DHT22;3055;50.886;14.814;2023-04-03T02:29:14;0.60;1.00
6054;DHT22;3055;50.886;14.814;2023-04-03T02:31:41;0.60;1.00
6054;DHT22;3055;50.886;14.814;2023-04-03T02:34:08;0.60;1.00
6054;DHT22;3055;50.886;14.814;2023-04-03T02:36:35;0.50;1.00
6054;DHT22;3055;50.886;14.814;2023-04-03T02:39:02;0.50;1.00
6054;DHT22;3055;50.886;14.814;2023-04-03T02:41:31;0.50;97.00
6054;DHT22;3055;50.886;14.814;2023-04-03T02:44:00;0.50;99.90
6054;DHT22;3055;50.886;14.814;2023-04-03T02:46:27;0.50;69.30
6054;DHT22;3055;50.886;14.814;2023-04-03T02:48:55;0.50;99.90
6054;DHT22;3055;50.886;14.814;2023-04-03T02:51:22;0.50;99.90
6054;DHT22;3055;50.886;14.814;2023-04-03T02:53:49;0.50;99.90
6054;DHT22;3055;50.886;14.814;2023-04-03T02:56:17;0.40;99.90
6054;DHT22;3055;50.886;14.814;2023-04-03T02:58:47;0.40;1.00
6054;DHT22;3055;50.886;14.814;2023-04-03T03:01:14;0.30;1.00
6054;DHT22;3055;50.886;14.814;2023-04-03T03:03:41;0.30;99.90
6054;DHT22;3055;50.886;14.814;2023-04-03T03:06:10;0.30;1.00
6054;DHT22;3055;50.886;14.814;2023-04-03T03:08:38;0.30;1.00
6054;DHT22;3055;50.886;14.814;2023-04-03T03:11:05;0.30;1.00
6054;DHT22;3055;50.886;14.814;2023-04-03T03:13:33;0.20;99.90
6054;DHT22;3055;50.886;14.814;2023-04-03T03:16:02;0.20;99.90
6054;DHT22;3055;50.886;14.814;2023-04-03T03:18:29;0.20;99.90
6054;DHT22;3055;50.886;14.814;2023-04-03T03:20:58;0.30;99.90
6054;DHT22;3055;50.886;14.814;2023-04-03T03:23:27;0.30;99.90
6054;DHT22;3055;50.886;14.814;2023-04-03T03:25:55;0.20;1.00
6054;DHT22;3055;50.886;14.814;2023-04-03T03:28:22;0.10;1.00
6054;DHT22;3055;50.886;14.814;2023-04-03T03:30:50;0.20;1.00
6054;DHT22;3055;50.886;14.814;2023-04-03T03:33:18;0.20;1.00
6054;DHT22;3055;50.886;14.814;2023-04-03T03:35:46;0.20;1.00
6054;DHT22;3055;50.886;14.814;2023-04-03T03:38:13;0.30;1.00
6054;DHT22;3055;50.886;14.814;2023-04-03T03:40:40;0.30;1.00
6054;DHT22;3055;50.886;14.814;2023-04-03T03:43:07;0.40;1.00
6054;DHT22;3055;50.886;14.814;2023-04-03T03:45:34;0.50;99.90
6054;DHT22;3055;50.886;14.814;2023-04-03T03:48:01;0.50;99.90
6054;DHT22;3055;50.886;14.814;2023-04-03T03:50:30;0.60;99.90
6054;DHT22;3055;50.886;14.814;2023-04-03T03:52:57;0.60;99.90
6054;DHT22;3055;50.886;14.814;2023-04-03T03:55:24;0.60;1.00
6054;DHT22;3055;50.886;14.814;2023-04-03T03:57:51;0.60;8.90
6054;DHT22;3055;50.886;14.814;2023-04-03T04:00:18;0.70;68.00
6054;DHT22;3055;50.886;14.814;2023-04-03T04:02:46;0.70;1.00
6054;DHT22;3055;50.886;14.814;2023-04-03T04:05:13;0.70;1.00
6054;DHT22;3055;50.886;14.814;2023-04-03T04:07:41;0.70;1.00
6054;DHT22;3055;50.886;14.814;2023-04-03T04:10:09;0.70;1.00
6054;DHT22;3055;50.886;14.814;2023-04-03T04:12:36;0.70;1.00
6054;DHT22;3055;50.886;14.814;2023-04-03T04:15:04;0.70;1.00
6054;DHT22;3055;50.886;14.814;2023-04-03T04:17:31;0.70;1.00
6054;DHT22;3055;50.886;14.814;2023-04-03T04:20:00;0.80;1.00
6054;DHT22;3055;50.886;14.814;2023-04-03T04:22:27;0.70;1.00
6054;DHT22;3055;50.886;14.814;2023-04-03T04:24:55;0.70;1.00
6054;DHT22;3055;50.886;14.814;2023-04-03T04:27:22;0.70;1.00
6054;DHT22;3055;50.886;14.814;2023-04-03T04:29:49;0.60;1.00
6054;DHT22;3055;50.886;14.814;2023-04-03T04:32:16;0.60;1.00
6054;DHT22;3055;50.886;14.814;2023-04-03T04:34:43;0.70;1.00
6054;DHT22;3055;50.886;14.814;2023-04-03T04:37:10;0.70;1.00
6054;DHT22;3055;50.886;14.814;2023-04-03T04:39:37;0.70;1.00
6054;DHT22;3055;50.886;14.814;2023-04-03T04:42:06;0.70;62.40
6054;DHT22;3055;50.886;14.814;2023-04-03T04:44:38;0.60;21.60
6054;DHT22;3055;50.886;14.814;2023-04-03T04:47:05;0.60;99.90
6054;DHT22;3055;50.886;14.814;2023-04-03T04:49:32;0.60;41.50
6054;DHT22;3055;50.886;14.814;2023-04-03T04:51:59;0.60;99.90
6054;DHT22;3055;50.886;14.814;2023-04-03T04:54:26;0.60;99.90
6054;DHT22;3055;50.886;14.814;2023-04-03T04:56:53;0.60;99.90
6054;DHT22;3055;50.886;14.814;2023-04-03T04:59:22;0.60;99.90
6054;DHT22;3055;50.886;14.814;2023-04-03T05:01:49;0.60;99.90
6054;DHT22;3055;50.886;14.814;2023-04-03T05:04:16;0.60;99.90
6054;DHT22;3055;50.886;14.814;2023-04-03T05:06:43;0.60;1.00
6054;DHT22;3055;50.886;14.814;2023-04-03T05:09:10;0.60;1.00
6054;DHT22;3055;50.886;14.814;2023-04-03T05:11:37;0.50;99.90
6054;DHT22;3055;50.886;14.814;2023-04-03T05:14:05;0.50;99.90
6054;DHT22;3055;50.886;14.814;2023-04-03T05:16:33;0.50;99.90
6054;DHT22;3055;50.886;14.814;2023-04-03T05:19:00;0.50;1.00
6054;DHT22;3055;50.886;14.814;2023-04-03T05:21:28;0.60;1.00
6054;DHT22;3055;50.886;14.814;2023-04-03T05:23:57;0.60;1.00
6054;DHT22;3055;50.886;14.814;2023-04-03T05:26:28;0.60;31.80
6054;DHT22;3055;50.886;14.814;2023-04-03T05:28:55;0.60;99.90
6054;DHT22;3055;50.886;14.814;2023-04-03T05:31:22;0.60;1.00
6054;DHT22;3055;50.886;14.814;2023-04-03T05:33:51;0.60;99.90
6054;DHT22;3055;50.886;14.814;2023-04-03T05:36:18;0.60;99.90
6054;DHT22;3055;50.886;14.814;2023-04-03T05:38:46;0.50;65.10
6054;DHT22;3055;50.886;14.814;2023-04-03T05:41:13;0.50;1.00
6054;DHT22;3055;50.886;14.814;2023-04-03T05:43:40;0.50;99.90
6054;DHT22;3055;50.886;14.814;2023-04-03T05:46:10;0.50;1.00
6054;DHT22;3055;50.886;14.814;2023-04-03T05:48:38;0.50;1.00
6054;DHT22;3055;50.886;14.814;2023-04-03T05:51:07;0.50;99.90
6054;DHT22;3055;50.886;14.814;2023-04-03T05:53:36;0.60;1.00
6054;DHT22;3055;50.886;14.814;2023-04-03T05:56:04;0.60;99.90
6054;DHT22;3055;50.886;14.814;2023-04-03T05:58:31;0.60;1.00
6054;DHT22;3055;50.886;14.814;2023-04-03T06:00:58;0.60;48.20
6054;DHT22;3055;50.886;14.814;2023-04-03T06:03:25;0.60;64.70
6054;DHT22;3055;50.886;14.814;2023-04-03T06:05:52;0.50;1.00
6054;DHT22;3055;50.886;14.814;2023-04-03T06:08:21;0.50;99.90
6054;DHT22;3055;50.886;14.814;2023-04-03T06:10:49;0.60;99.90
6054;DHT22;3055;50.886;14.814;2023-04-03T06:13:17;0.60;1.00
6054;DHT22;3055;50.886;14.814;2023-04-03T06:15:44;0.60;12.10
6054;DHT22;3055;50.886;14.814;2023-04-03T06:18:12;0.60;99.90
6054;DHT22;3055;50.886;14.814;2023-04-03T06:20:39;0.60;99.90
6054;DHT22;3055;50.886;14.814;2023-04-03T06:23:06;0.70;1.00
6054;DHT22;3055;50.886;14.814;2023-04-03T06:25:34;0.70;99.90
6054;DHT22;3055;50.886;14.814;2023-04-03T06:28:02;0.80;1.00
6054;DHT22;3055;50.886;14.814;2023-04-03T06:30:29;0.80;1.00
6054;DHT22;3055;50.886;14.814;2023-04-03T06:32:56;0.80;1.00
6054;DHT22;3055;50.886;14.814;2023-04-03T06:35:24;0.80;99.90
6054;DHT22;3055;50.886;14.814;2023-04-03T06:37:53;0.80;1.00
6054;DHT22;3055;50.886;14.814;2023-04-03T06:40:23;0.80;1.00
6054;DHT22;3055;50.886;14.814;2023-04-03T06:42:52;0.90;99.90
6054;DHT22;3055;50.886;14.814;2023-04-03T06:45:19;0.90;56.50
6054;DHT22;3055;50.886;14.814;2023-04-03T06:47:47;1.00;1.00
6054;DHT22;3055;50.886;14.814;2023-04-03T06:50:14;1.00;1.00
6054;DHT22;3055;50.886;14.814;2023-04-03T06:52:41;1.10;1.00
6054;DHT22;3055;50.886;14.814;2023-04-03T06:55:09;1.10;99.90
6054;DHT22;3055;50.886;14.814;2023-04-03T06:57:37;1.10;99.90
6054;DHT22;3055;50.886;14.814;2023-04-03T07:00:07;1.10;99.90
6054;DHT22;3055;50.886;14.814;2023-04-03T07:02:35;1.20;99.90
6054;DHT22;3055;50.886;14.814;2023-04-03T07:05:03;1.30;38.40
6054;DHT22;3055;50.886;14.814;2023-04-03T07:07:30;1.30;1.00
6054;DHT22;3055;50.886;14.814;2023-04-03T07:09:58;1.30;37.00
6054;DHT22;3055;50.886;14.814;2023-04-03T07:12:25;1.30;57.10
6054;DHT22;3055;50.886;14.814;2023-04-03T07:14:52;1.30;38.50
6054;DHT22;3055;50.886;14.814;2023-04-03T07:17:21;1.30;1.00
6054;DHT22;3055;50.886;14.814;2023-04-03T07:19:48;1.30;1.00
6054;DHT22;3055;50.886;14.814;2023-04-03T07:22:15;1.30;1.00
6054;DHT22;3055;50.886;14.814;2023-04-03T07:24:43;1.30;1.00
6054;DHT22;3055;50.886;14.814;2023-04-03T07:27:10;1.30;1.00
6054;DHT22;3055;50.886;14.814;2023-04-03T07:29:38;1.50;31.00
6054;DHT22;3055;50.886;14.814;2023-04-03T07:32:05;1.60;99.90
6054;DHT22;3055;50.886;14.814;2023-04-03T07:34:34;1.70;99.90
6054;DHT22;3055;50.886;14.814;2023-04-03T07:37:01;1.80;99.90
6054;DHT22;3055;50.886;14.814;2023-04-03T07:39:29;1.90;99.90
6054;DHT22;3055;50.886;14.814;2023-04-03T07:41:56;1.80;89.60
6054;DHT22;3055;50.886;14.814;2023-04-03T07:44:23;1.80;98.20
6054;DHT22;3055;50.886;14.814;2023-04-03T07:46:50;1.80;1.00
6054;DHT22;3055;50.886;14.814;2023-04-03T07:49:17;2.00;1.00
6054;DHT22;3055;50.886;14.814;2023-04-03T07:51:46;2.10;1.00
6054;DHT22;3055;50.886;14.814;2023-04-03T07:54:14;2.20;1.00
6054;DHT22;3055;50.886;14.814;2023-04-03T07:56:41;2.20;1.00
6054;DHT22;3055;50.886;14.814;2023-04-03T07:59:09;2.20;1.00
6054;DHT22;3055;50.886;14.814;2023-04-03T08:01:37;2.30;1.00
6054;DHT22;3055;50.886;14.814;2023-04-03T08:04:04;2.40;1.00
6054;DHT22;3055;50.886;14.814;2023-04-03T08:06:32;2.40;1.00
6054;DHT22;3055;50.886;14.814;2023-04-03T08:09:03;2.40;1.00
6054;DHT22;3055;50.886;14.814;2023-04-03T08:11:30;2.40;1.00
6054;DHT22;3055;50.886;14.814;2023-04-03T08:13:57;2.50;1.00
6054;DHT22;3055;50.886;14.814;2023-04-03T08:16:25;2.60;1.00
6054;DHT22;3055;50.886;14.814;2023-04-03T08:18:53;2.80;1.00
6054;DHT22;3055;50.886;14.814;2023-04-03T08:21:20;3.00;99.90
6054;DHT22;3055;50.886;14.814;2023-04-03T08:23:49;3.10;99.90
6054;DHT22;3055;50.886;14.814;2023-04-03T08:26:19;3.10;99.90
6054;DHT22;3055;50.886;14.814;2023-04-03T08:28:47;3.20;99.90
6054;DHT22;3055;50.886;14.814;2023-04-03T08:31:16;3.20;99.90
6054;DHT22;3055;50.886;14.814;2023-04-03T08:33:44;2.90;99.90
6054;DHT22;3055;50.886;14.814;2023-04-03T08:36:17;2.90;99.90
6054;DHT22;3055;50.886;14.814;2023-04-03T08:38:45;3.10;99.90
6054;DHT22;3055;50.886;14.814;2023-04-03T08:41:15;3.20;99.90
6054;DHT22;3055;50.886;14.814;2023-04-03T08:43:56;3.20;99.90
6054;DHT22;3055;50.886;14.814;2023-04-03T08:46:30;3.20;99.90
6054;DHT22;3055;50.886;14.814;2023-04-03T08:49:00;3.30;99.90
6054;DHT22;3055;50.886;14.814;2023-04-03T08:51:28;3.30;99.90
6054;DHT22;3055;50.886;14.814;2023-04-03T08:53:59;3.10;99.90
6054;DHT22;3055;50.886;14.814;2023-04-03T08:56:28;3.00;99.90
6054;DHT22;3055;50.886;14.814;2023-04-03T08:59:00;3.20;99.90
6054;DHT22;3055;50.886;14.814;2023-04-03T09:01:35;3.40;99.90
6054;DHT22;3055;50.886;14.814;2023-04-03T09:04:08;3.60;99.90
6054;DHT22;3055;50.886;14.814;2023-04-03T09:06:37;3.50;99.90
6054;DHT22;3055;50.886;14.814;2023-04-03T09:09:12;3.70;99.90
6054;DHT22;3055;50.886;14.814;2023-04-03T09:11:47;3.90;99.90
6054;DHT22;3055;50.886;14.814;2023-04-03T09:14:22;4.30;99.90
6054;DHT22;3055;50.886;14.814;2023-04-03T09:16:55;4.70;99.90
6054;DHT22;3055;50.886;14.814;2023-04-03T09:19:36;5.00;66.00
6054;DHT22;3055;50.886;14.814;2023-04-03T09:22:16;5.00;27.90
6054;DHT22;3055;50.886;14.814;2023-04-03T09:24:46;5.30;18.30
6054;DHT22;3055;50.886;14.814;2023-04-03T09:27:14;5.60;4.60
6054;DHT22;3055;50.886;14.814;2023-04-03T09:29:44;5.70;2.70
6054;DHT22;3055;50.886;14.814;2023-04-03T09:32:29;5.70;1.00
6054;DHT22;3055;50.886;14.814;2023-04-03T09:35:00;5.70;1.00
6054;DHT22;3055;50.886;14.814;2023-04-03T09:37:38;5.50;1.00
6054;DHT22;3055;50.886;14.814;2023-04-03T09:40:12;5.30;1.00
6054;DHT22;3055;50.886;14.814;2023-04-03T09:42:57;5.50;1.00
6054;DHT22;3055;50.886;14.814;2023-04-03T09:45:26;5.30;1.00
6054;DHT22;3055;50.886;14.814;2023-04-03T09:48:06;5.10;1.00
6054;DHT22;3055;50.886;14.814;2023-04-03T09:50:33;4.70;1.00
6054;DHT22;3055;50.886;14.814;2023-04-03T09:53:05;4.60;1.00
6054;DHT22;3055;50.886;14.814;2023-04-03T09:55:42;4.60;1.00
6054;DHT22;3055;50.886;14.814;2023-04-03T09:58:25;4.80;1.00
6054;DHT22;3055;50.886;14.814;2023-04-03T10:00:57;4.90;1.00
6054;DHT22;3055;50.886;14.814;2023-04-03T10:03:28;4.80;1.00
6054;DHT22;3055;50.886;14.814;2023-04-03T10:05:56;4.80;1.00
6054;DHT22;3055;50.886;14.814;2023-04-03T10:08:27;4.80;1.00
6054;DHT22;3055;50.886;14.814;2023-04-03T10:11:10;4.80;1.00
6054;DHT22;3055;50.886;14.814;2023-04-03T10:13:51;4.90;1.00
6054;DHT22;3055;50.886;14.814;2023-04-03T10:16:20;4.90;1.00
6054;DHT22;3055;50.886;14.814;2023-04-03T10:18:56;4.60;1.00
6054;DHT22;3055;50.886;14.814;2023-04-03T10:21:35;4.60;1.00
6054;DHT22;3055;50.886;14.814;2023-04-03T10:24:10;4.60;1.00
6054;DHT22;3055;50.886;14.814;2023-04-03T10:26:45;4.80;1.00
6054;DHT22;3055;50.886;14.814;2023-04-03T10:29:26;5.30;1.00
6054;DHT22;3055;50.886;14.814;2023-04-03T10:32:01;5.50;1.00
6054;DHT22;3055;50.886;14.814;2023-04-03T10:34:31;5.60;1.00
6054;DHT22;3055;50.886;14.814;2023-04-03T10:37:05;6.00;1.00
6054;DHT22;3055;50.886;14.814;2023-04-03T10:39:39;6.30;1.00
6054;DHT22;3055;50.886;14.814;2023-04-03T10:42:12;6.20;1.00
6054;DHT22;3055;50.886;14.814;2023-04-03T10:45:01;6.10;1.00
6054;DHT22;3055;50.886;14.814;2023-04-03T10:47:36;5.90;1.00
6054;DHT22;3055;50.886;14.814;2023-04-03T10:50:20;5.60;1.00
6054;DHT22;3055;50.886;14.814;2023-04-03T10:52:57;5.70;1.00
6054;DHT22;3055;50.886;14.814;2023-04-03T10:55:34;5.60;1.00
6054;DHT22;3055;50.886;14.814;2023-04-03T10:58:03;5.70;1.00
6054;DHT22;3055;50.886;14.814;2023-04-03T11:00:36;5.60;1.00
6054;DHT22;3055;50.886;14.814;2023-04-03T11:03:08;5.50;1.00
6054;DHT22;3055;50.886;14.814;2023-04-03T11:05:42;5.50;1.00
6054;DHT22;3055;50.886;14.814;2023-04-03T11:08:17;5.40;1.00
6054;DHT22;3055;50.886;14.814;2023-04-03T11:10:50;5.30;1.00
6054;DHT22;3055;50.886;14.814;2023-04-03T11:13:21;5.20;1.00
6054;DHT22;3055;50.886;14.814;2023-04-03T11:15:51;5.10;1.00
6054;DHT22;3055;50.886;14.814;2023-04-03T11:18:23;5.10;1.00
6054;DHT22;3055;50.886;14.814;2023-04-03T11:21:00;5.10;1.00
6054;DHT22;3055;50.886;14.814;2023-04-03T11:23:32;5.00;1.00
6054;DHT22;3055;50.886;14.814;2023-04-03T11:26:11;5.20;1.00
6054;DHT22;3055;50.886;14.814;2023-04-03T11:28:38;5.30;1.00
6054;DHT22;3055;50.886;14.814;2023-04-03T11:31:16;5.30;1.00
6054;DHT22;3055;50.886;14.814;2023-04-03T11:33:52;5.30;1.00
6054;DHT22;3055;50.886;14.814;2023-04-03T11:36:24;5.50;1.00
6054;DHT22;3055;50.886;14.814;2023-04-03T11:38:55;5.70;1.00
6054;DHT22;3055;50.886;14.814;2023-04-03T11:41:28;5.80;1.00
6054;DHT22;3055;50.886;14.814;2023-04-03T11:43:58;5.70;1.00
6054;DHT22;3055;50.886;14.814;2023-04-03T11:59:16;5.30;1.00
6054;DHT22;3055;50.886;14.814;2023-04-03T12:01:45;5.40;1.00
6054;DHT22;3055;50.886;14.814;2023-04-03T12:04:15;5.40;1.00
6054;DHT22;3055;50.886;14.814;2023-04-03T12:10:01;5.60;1.00
6054;DHT22;3055;50.886;14.814;2023-04-03T12:12:37;5.60;1.00
6054;DHT22;3055;50.886;14.814;2023-04-03T12:15:26;5.40;1.00
6054;DHT22;3055;50.886;14.814;2023-04-03T12:17:53;5.40;1.00
6054;DHT22;3055;50.886;14.814;2023-04-03T12:20:57;5.50;1.00
6054;DHT22;3055;50.886;14.814;2023-04-03T12:23:31;5.40;1.00
6054;DHT22;3055;50.886;14.814;2023-04-03T12:26:05;5.50;1.00
6054;DHT22;3055;50.886;14.814;2023-04-03T12:28:47;5.60;1.00
6054;DHT22;3055;50.886;14.814;2023-04-03T12:31:15;5.60;1.00
6054;DHT22;3055;50.886;14.814;2023-04-03T12:34:04;5.60;1.00
6054;DHT22;3055;50.886;14.814;2023-04-03T12:36:42;5.70;1.00
6054;DHT22;3055;50.886;14.814;2023-04-03T12:39:41;5.80;1.00
6054;DHT22;3055;50.886;14.814;2023-04-03T12:42:21;5.90;1.00
6054;DHT22;3055;50.886;14.814;2023-04-03T12:44:56;5.70;1.00
6054;DHT22;3055;50.886;14.814;2023-04-03T12:47:29;5.50;1.00
6054;DHT22;3055;50.886;14.814;2023-04-03T12:49:59;5.30;1.00
6054;DHT22;3055;50.886;14.814;2023-04-03T12:52:38;5.20;1.00
6054;DHT22;3055;50.886;14.814;2023-04-03T12:55:14;5.20;1.00
6054;DHT22;3055;50.886;14.814;2023-04-03T12:57:41;5.20;1.00
6054;DHT22;3055;50.886;14.814;2023-04-03T13:00:29;5.30;1.00
6054;DHT22;3055;50.886;14.814;2023-04-03T13:02:58;5.40;1.00
6054;DHT22;3055;50.886;14.814;2023-04-03T13:05:25;5.40;1.00
6054;DHT22;3055;50.886;14.814;2023-04-03T13:07:56;5.40;1.00
6054;DHT22;3055;50.886;14.814;2023-04-03T13:10:24;5.50;1.00
6054;DHT22;3055;50.886;14.814;2023-04-03T13:12:53;5.50;1.00
6054;DHT22;3055;50.886;14.814;2023-04-03T13:15:23;5.60;1.00
6054;DHT22;3055;50.886;14.814;2023-04-03T13:17:52;5.60;1.00
6054;DHT22;3055;50.886;14.814;2023-04-03T13:20:23;5.60;1.00
6054;DHT22;3055;50.886;14.814;2023-04-03T13:22:55;5.70;1.00
6054;DHT22;3055;50.886;14.814;2023-04-03T13:25:24;5.80;1.00
6054;DHT22;3055;50.886;14.814;2023-04-03T13:27:52;5.80;1.00
6054;DHT22;3055;50.886;14.814;2023-04-03T13:30:25;5.80;1.00
6054;DHT22;3055;50.886;14.814;2023-04-03T13:32:54;5.70;1.00
6054;DHT22;3055;50.886;14.814;2023-04-03T13:35:31;5.60;1.00
6054;DHT22;3055;50.886;14.814;2023-04-03T13:38:02;5.60;1.00
6054;DHT22;3055;50.886;14.814;2023-04-03T13:40:29;5.70;1.00
6054;DHT22;3055;50.886;14.814;2023-04-03T13:43:05;5.70;1.00
6054;DHT22;3055;50.886;14.814;2023-04-03T13:45:35;6.00;1.00
6054;DHT22;3055;50.886;14.814;2023-04-03T13:48:15;6.00;1.00
6054;DHT22;3055;50.886;14.814;2023-04-03T13:50:59;5.90;1.00
6054;DHT22;3055;50.886;14.814;2023-04-03T13:53:26;5.70;1.00
6054;DHT22;3055;50.886;14.814;2023-04-03T13:56:09;5.80;1.00
6054;DHT22;3055;50.886;14.814;2023-04-03T13:58:53;5.90;1.00
6054;DHT22;3055;50.886;14.814;2023-04-03T14:01:24;5.70;1.00
6054;DHT22;3055;50.886;14.814;2023-04-03T14:03:55;5.50;1.00
6054;DHT22;3055;50.886;14.814;2023-04-03T14:06:22;5.20;1.00
6054;DHT22;3055;50.886;14.814;2023-04-03T14:08:50;5.10;1.00
6054;DHT22;3055;50.886;14.814;2023-04-03T14:11:20;5.20;1.00
6054;DHT22;3055;50.886;14.814;2023-04-03T14:13:48;5.50;1.00
6054;DHT22;3055;50.886;14.814;2023-04-03T14:16:18;6.40;1.00
6054;DHT22;3055;50.886;14.814;2023-04-03T14:18:48;6.50;1.00
6054;DHT22;3055;50.886;14.814;2023-04-03T14:21:19;6.00;1.00
6054;DHT22;3055;50.886;14.814;2023-04-03T14:23:47;5.60;1.00
6054;DHT22;3055;50.886;14.814;2023-04-03T14:26:16;5.40;1.00
6054;DHT22;3055;50.886;14.814;2023-04-03T14:28:44;5.30;1.00
6054;DHT22;3055;50.886;14.814;2023-04-03T14:31:12;5.30;1.00
6054;DHT22;3055;50.886;14.814;2023-04-03T14:33:40;5.30;1.00
6054;DHT22;3055;50.886;14.814;2023-04-03T14:36:14;5.60;1.00
6054;DHT22;3055;50.886;14.814;2023-04-03T14:38:42;6.30;1.00
6054;DHT22;3055;50.886;14.814;2023-04-03T14:41:12;6.50;1.00
6054;DHT22;3055;50.886;14.814;2023-04-03T14:43:39;6.10;1.00
6054;DHT22;3055;50.886;14.814;2023-04-03T14:46:12;5.60;1.00
6054;DHT22;3055;50.886;14.814;2023-04-03T14:48:40;5.30;1.00
6054;DHT22;3055;50.886;14.814;2023-04-03T14:51:08;5.20;1.00
6054;DHT22;3055;50.886;14.814;2023-04-03T14:53:38;5.20;1.00
6054;DHT22;3055;50.886;14.814;2023-04-03T14:56:11;5.20;1.00
6054;DHT22;3055;50.886;14.814;2023-04-03T14:58:39;5.40;1.00
6054;DHT22;3055;50.886;14.814;2023-04-03T15:01:06;5.40;1.00
6054;DHT22;3055;50.886;14.814;2023-04-03T15:03:33;5.50;1.00
6054;DHT22;3055;50.886;14.814;2023-04-03T15:06:00;5.80;1.00
6054;DHT22;3055;50.886;14.814;2023-04-03T15:08:28;6.80;1.00
6054;DHT22;3055;50.886;14.814;2023-04-03T15:10:57;7.50;1.00
6054;DHT22;3055;50.886;14.814;2023-04-03T15:13:25;7.40;1.00
6054;DHT22;3055;50.886;14.814;2023-04-03T15:15:52;6.90;1.00
6054;DHT22;3055;50.886;14.814;2023-04-03T15:18:21;6.30;1.00
6054;DHT22;3055;50.886;14.814;2023-04-03T15:20:49;5.80;1.00
6054;DHT22;3055;50.886;14.814;2023-04-03T15:23:17;5.50;1.00
6054;DHT22;3055;50.886;14.814;2023-04-03T15:25:45;5.30;1.00
6054;DHT22;3055;50.886;14.814;2023-04-03T15:28:18;5.30;1.00
6054;DHT22;3055;50.886;14.814;2023-04-03T15:30:46;5.30;1.00
6054;DHT22;3055;50.886;14.814;2023-04-03T15:33:13;6.30;1.00
6054;DHT22;3055;50.886;14.814;2023-04-03T15:35:41;7.20;1.00
6054;DHT22;3055;50.886;14.814;2023-04-03T15:38:08;7.90;1.00
6054;DHT22;3055;50.886;14.814;2023-04-03T15:40:36;7.90;1.00
6054;DHT22;3055;50.886;14.814;2023-04-03T15:43:04;7.40;1.00
6054;DHT22;3055;50.886;14.814;2023-04-03T15:45:34;6.70;1.00
6054;DHT22;3055;50.886;14.814;2023-04-03T15:48:02;6.20;1.00
6054;DHT22;3055;50.886;14.814;2023-04-03T15:50:30;5.80;1.00
6054;DHT22;3055;50.886;14.814;2023-04-03T15:52:57;5.50;1.00
6054;DHT22;3055;50.886;14.814;2023-04-03T15:55:25;5.30;1.00
6054;DHT22;3055;50.886;14.814;2023-04-03T15:57:53;5.00;1.00
6054;DHT22;3055;50.886;14.814;2023-04-03T16:00:21;4.90;1.00
6054;DHT22;3055;50.886;14.814;2023-04-03T16:02:53;4.80;1.00
6054;DHT22;3055;50.886;14.814;2023-04-03T16:05:22;4.80;1.00
6054;DHT22;3055;50.886;14.814;2023-04-03T16:07:50;4.80;1.00
6054;DHT22;3055;50.886;14.814;2023-04-03T16:10:19;4.90;1.00
6054;DHT22;3055;50.886;14.814;2023-04-03T16:12:46;4.90;1.00
6054;DHT22;3055;50.886;14.814;2023-04-03T16:15:13;4.90;1.00
6054;DHT22;3055;50.886;14.814;2023-04-03T16:17:40;4.80;1.00
6054;DHT22;3055;50.886;14.814;2023-04-03T16:20:11;4.80;1.00
6054;DHT22;3055;50.886;14.814;2023-04-03T16:22:40;4.80;1.00
6054;DHT22;3055;50.886;14.814;2023-04-03T16:25:09;4.90;1.00
6054;DHT22;3055;50.886;14.814;2023-04-03T16:27:36;4.90;1.00
6054;DHT22;3055;50.886;14.814;2023-04-03T16:30:05;4.80;1.00
6054;DHT22;3055;50.886;14.814;2023-04-03T16:32:32;4.70;1.00
6054;DHT22;3055;50.886;14.814;2023-04-03T16:34:59;4.60;1.00
6054;DHT22;3055;50.886;14.814;2023-04-03T16:37:28;4.50;1.00
6054;DHT22;3055;50.886;14.814;2023-04-03T16:39:55;4.50;1.00
6054;DHT22;3055;50.886;14.814;2023-04-03T16:42:23;4.50;1.00
6054;DHT22;3055;50.886;14.814;2023-04-03T16:44:50;4.50;1.00
6054;DHT22;3055;50.886;14.814;2023-04-03T16:47:17;4.40;1.00